Главная страница
METAR-TAF:

METAR-TAF

Аэропорты :

Шанхай-Пудун, Китай

Пудун

широта: 31-07N, долгота: 121-46E, высота над уровнем моря: 4 м

Текущие метеонаблюдения

Эта сводка был подготовлена 16 минут назад, в 21:30 UTC
Ветер 4 Узел от южный, изменяющийся между юго-восточный и южный-юго-западный
Температура 12°C
Влажность 76%
Давление 1015 hPa
Видимость 10 км и более
Нет облачности ниже 1500 м, и нет кучево-дождевой облачности

METAR: ZSPD 252130Z 18002MPS 140V210 CAVOK 12/08 Q1015 NOSIG

Время: 05:46 (21:46 UTC)

Прогноз

Эта сводка был подготовлена 6 часа и 35 минут назад, в 15:11 UTC
Прогноз действительный с 25-го 18 UTC до 26-го 18 UTC
Ветер 8 Узел от восточно-северо-восточный
Видимость: 5000 м
Отдельные облака на высоте 2000 фута
дымка
изменения
С 25-го 22 UTC до 25-го 24 UTC
Ветер 8 Узел от восточный

TAF: ZSPD 251511Z 2518/2618 07004MPS 5000 BR SCT020 TX22/2606Z TN13/2521Z BECMG 2522/2524 10004MPS

Метеонаблюдения и прогнозы для более 4000 аэропортов (сводки METAR и TAF).

Имеющиеся станции представлены на карте желтыми и красными точками.

Чтобы увидеть название станции, наведите на нее мышь.

Затем щелкните, чтобы увидеть метеонаблюдения и метеопрогнозы.

Управление картой: чтобы увеличить масштаб, щелкните зеленые кнопки с черным крестиком; чтобы уменьшить масштаб, щелкните зеленую кнопку с тире; для просмотра соседних карт щелкайте зеленые стрелки.


METAR-TAF: